Time,TemperatureF,DewpointF,PressureIn,WindDirection,WindDirectionDegrees,WindSpeedMPH,WindSpeedGustMPH,Humidity,HourlyPrecipIn,Conditions,Clouds,dailyrainin,SoftwareType,DateUTC
2013-06-01 00:02:00,66.0,64.0,-100.00,SSW,200,14.0,21.0,92,-99.99,,,-99.99,,2013-06-01 05:02:00,
2013-06-01 00:12:00,66.0,63.0,-100.00,South,190,21.0,26.0,90,-99.99,,,-99.99,,2013-06-01 05:12:00,
2013-06-01 00:22:00,66.0,63.0,-100.00,South,190,21.0,26.0,90,-99.99,,,-99.99,,2013-06-01 05:22:00,
2013-06-01 00:32:00,68.0,63.0,-100.00,SSW,195,26.0,32.0,84,-99.99,,,-99.99,,2013-06-01 05:32:00,
2013-06-01 00:42:00,67.0,63.0,-100.00,SSW,200,26.0,33.0,86,-99.99,,,-99.99,,2013-06-01 05:42:00,
2013-06-01 00:52:00,67.0,63.0,-100.00,SSW,200,26.0,33.0,86,-99.99,,,-99.99,,2013-06-01 05:52:00,
2013-06-01 01:01:00,67.0,63.0,-100.00,South,190,24.0,32.0,87,-99.99,,,-99.99,,2013-06-01 06:01:00,
2013-06-01 01:12:00,67.0,63.0,-100.00,SSW,195,28.0,33.0,88,-99.99,,,-99.99,,2013-06-01 06:12:00,
2013-06-01 01:22:00,67.0,63.0,-100.00,SSW,195,28.0,33.0,88,-99.99,,,-99.99,,2013-06-01 06:22:00,
2013-06-01 01:32:00,66.0,63.0,-100.00,South,190,22.0,31.0,89,-99.99,,,-99.99,,2013-06-01 06:32:00,
2013-06-01 01:42:00,66.0,63.0,-100.00,South,190,19.0,28.0,90,-99.99,,,-99.99,,2013-06-01 06:42:00,
2013-06-01 01:52:00,66.0,63.0,-100.00,South,190,19.0,28.0,90,-99.99,,,-99.99,,2013-06-01 06:52:00,
2013-06-01 02:01:00,66.0,63.0,-100.00,SSW,210,19.0,25.0,90,-99.99,,,-99.99,,2013-06-01 07:01:00,
2013-06-01 02:11:00,66.0,63.0,-100.00,SSW,210,18.0,22.0,90,-99.99,,,-99.99,,2013-06-01 07:11:00,
2013-06-01 02:22:00,66.0,63.0,-100.00,SSW,210,18.0,22.0,90,-99.99,,,-99.99,,2013-06-01 07:22:00,
2013-06-01 02:32:00,65.0,62.0,-100.00,SSW,205,19.0,24.0,90,-99.99,,,-99.99,,2013-06-01 07:32:00,
2013-06-01 02:42:00,66.0,62.0,-100.00,SSW,195,14.0,18.0,89,-99.99,,,-99.99,,2013-06-01 07:42:00,
2013-06-01 02:52:00,66.0,62.0,-100.00,SSW,195,14.0,18.0,89,-99.99,,,-99.99,,2013-06-01 07:52:00,
2013-06-01 03:02:00,65.0,62.0,-100.00,SW,235,14.0,18.0,89,-99.99,,,-99.99,,2013-06-01 08:02:00,
2013-06-01 03:11:00,65.0,62.0,-100.00,SW,220,11.0,14.0,89,-99.99,,,-99.99,,2013-06-01 08:11:00,
2013-06-01 03:21:00,65.0,62.0,-100.00,SW,220,11.0,14.0,89,-99.99,,,-99.99,,2013-06-01 08:21:00,
2013-06-01 03:32:00,65.0,62.0,-100.00,SW,220,10.0,17.0,89,-99.99,,,-99.99,,2013-06-01 08:32:00,
2013-06-01 03:42:00,65.0,62.0,-100.00,SW,215,11.0,15.0,90,-99.99,,,-99.99,,2013-06-01 08:42:00,
2013-06-01 03:52:00,65.0,62.0,-100.00,SW,215,11.0,15.0,90,-99.99,,,-99.99,,2013-06-01 08:52:00,
2013-06-01 04:01:00,65.0,61.0,-100.00,SW,215,13.0,17.0,88,-99.99,,,-99.99,,2013-06-01 09:01:00,
2013-06-01 04:12:00,65.0,61.0,-100.00,SSW,210,16.0,20.0,87,-99.99,,,-99.99,,2013-06-01 09:12:00,
2013-06-01 04:21:00,65.0,61.0,-100.00,SSW,210,16.0,20.0,87,-99.99,,,-99.99,,2013-06-01 09:21:00,
2013-06-01 04:33:00,64.0,60.0,-100.00,SSW,210,16.0,18.0,87,-99.99,,,-99.99,,2013-06-01 09:33:00,
2013-06-01 04:42:00,64.0,61.0,-100.00,SSW,200,15.0,18.0,88,-99.99,,,-99.99,,2013-06-01 09:42:00,
2013-06-01 04:53:00,64.0,61.0,-100.00,SSW,200,15.0,18.0,88,-99.99,,,-99.99,,2013-06-01 09:53:00,
2013-06-01 05:02:00,64.0,61.0,-100.00,South,190,11.0,16.0,90,-99.99,,,-99.99,,2013-06-01 10:02:00,
2013-06-01 05:13:00,64.0,61.0,-100.00,South,190,13.0,17.0,91,-99.99,,,-99.99,,2013-06-01 10:13:00,
2013-06-01 05:22:00,64.0,61.0,-100.00,South,190,13.0,17.0,91,-99.99,,,-99.99,,2013-06-01 10:22:00,
2013-06-01 05:33:00,63.0,61.0,-100.00,South,180,13.0,17.0,93,-99.99,,,-99.99,,2013-06-01 10:33:00,
2013-06-01 05:42:00,63.0,61.0,-100.00,South,175,11.0,16.0,94,-99.99,,,-99.99,,2013-06-01 10:42:00,
2013-06-01 05:52:00,63.0,61.0,-100.00,South,175,11.0,16.0,94,-99.99,,,-99.99,,2013-06-01 10:52:00,
2013-06-01 06:02:00,63.0,61.0,-100.00,South,170,11.0,15.0,95,-99.99,,,-99.99,,2013-06-01 11:02:00,
2013-06-01 06:11:00,63.0,62.0,-100.00,South,185,11.0,15.0,95,-99.99,,,-99.99,,2013-06-01 11:11:00,
2013-06-01 06:21:00,63.0,62.0,-100.00,South,185,11.0,15.0,95,-99.99,,,-99.99,,2013-06-01 11:21:00,
2013-06-01 06:32:00,63.0,62.0,-100.00,South,185,14.0,19.0,95,-99.99,,,-99.99,,2013-06-01 11:32:00,
2013-06-01 06:42:00,63.0,62.0,-100.00,South,180,14.0,19.0,95,-99.99,,,-99.99,,2013-06-01 11:42:00,
2013-06-01 06:52:00,63.0,62.0,-100.00,South,180,14.0,19.0,95,-99.99,,,-99.99,,2013-06-01 11:52:00,
2013-06-01 07:01:00,64.0,62.0,-100.00,South,180,16.0,21.0,95,-99.99,,,-99.99,,2013-06-01 12:01:00,
2013-06-01 07:12:00,64.0,63.0,-100.00,South,175,14.0,19.0,95,-99.99,,,-99.99,,2013-06-01 12:12:00,
2013-06-01 07:21:00,64.0,63.0,-100.00,South,175,14.0,19.0,95,-99.99,,,-99.99,,2013-06-01 12:21:00,
2013-06-01 07:32:00,64.0,63.0,-100.00,South,175,16.0,22.0,95,-99.99,,,-99.99,,2013-06-01 12:32:00,
2013-06-01 07:42:00,64.0,63.0,-100.00,South,175,19.0,24.0,95,-99.99,,,-99.99,,2013-06-01 12:42:00,
2013-06-01 07:52:00,64.0,63.0,-100.00,South,175,19.0,24.0,95,-99.99,,,-99.99,,2013-06-01 12:52:00,
2013-06-01 08:01:00,64.0,63.0,-100.00,South,170,18.0,24.0,95,-99.99,,,-99.99,,2013-06-01 13:01:00,
2013-06-01 08:11:00,65.0,63.0,-100.00,South,175,18.0,26.0,94,-99.99,,,-99.99,,2013-06-01 13:11:00,
2013-06-01 08:22:00,65.0,63.0,-100.00,South,175,18.0,26.0,94,-99.99,,,-99.99,,2013-06-01 13:22:00,
2013-06-01 08:32:00,65.0,63.0,-100.00,South,185,22.0,29.0,93,-99.99,,,-99.99,,2013-06-01 13:32:00,
2013-06-01 08:42:00,65.0,63.0,-100.00,South,180,23.0,29.0,92,-99.99,,,-99.99,,2013-06-01 13:42:00,
2013-06-01 08:52:00,65.0,63.0,-100.00,South,180,23.0,29.0,92,-99.99,,,-99.99,,2013-06-01 13:52:00,
2013-06-01 09:02:00,66.0,63.0,-100.00,South,180,24.0,34.0,92,-99.99,,,-99.99,,2013-06-01 14:02:00,
2013-06-01 09:11:00,66.0,63.0,-100.00,South,185,28.0,36.0,91,-99.99,,,-99.99,,2013-06-01 14:11:00,
2013-06-01 09:21:00,66.0,63.0,-100.00,South,185,28.0,36.0,91,-99.99,,,-99.99,,2013-06-01 14:21:00,
2013-06-01 09:32:00,67.0,64.0,-100.00,South,185,24.0,33.0,90,-99.99,,,-99.99,,2013-06-01 14:32:00,
2013-06-01 09:42:00,67.0,64.0,-100.00,South,180,25.0,32.0,90,-99.99,,,-99.99,,2013-06-01 14:42:00,
2013-06-01 09:52:00,67.0,64.0,-100.00,South,180,25.0,32.0,90,-99.99,,,-99.99,,2013-06-01 14:52:00,
2013-06-01 10:02:00,68.0,64.0,-100.00,South,185,25.0,34.0,87,-99.99,,,-99.99,,2013-06-01 15:02:00,
2013-06-01 10:11:00,68.0,64.0,-100.00,South,180,24.0,29.0,86,-99.99,,,-99.99,,2013-06-01 15:11:00,
2013-06-01 10:21:00,68.0,64.0,-100.00,South,180,24.0,29.0,86,-99.99,,,-99.99,,2013-06-01 15:21:00,
2013-06-01 10:33:00,68.0,64.0,-100.00,South,180,24.0,29.0,86,-99.99,,,-99.99,,2013-06-01 15:33:00,
2013-06-01 10:43:00,69.0,64.0,-100.00,South,180,24.0,33.0,85,-99.99,,,-99.99,,2013-06-01 15:43:00,
2013-06-01 10:53:00,69.0,64.0,-100.00,South,180,24.0,33.0,85,-99.99,,,-99.99,,2013-06-01 15:53:00,
2013-06-01 11:03:00,69.0,64.0,-100.00,South,185,24.0,32.0,84,-99.99,,,-99.99,,2013-06-01 16:03:00,
2013-06-01 11:12:00,70.0,65.0,-100.00,South,185,18.0,28.0,84,-99.99,,,-99.99,,2013-06-01 16:12:00,
2013-06-01 11:23:00,70.0,65.0,-100.00,South,185,18.0,28.0,84,-99.99,,,-99.99,,2013-06-01 16:23:00,
2013-06-01 11:33:00,70.0,65.0,-100.00,SSW,195,21.0,27.0,85,-99.99,,,-99.99,,2013-06-01 16:33:00,
2013-06-01 11:42:00,71.0,65.0,-100.00,South,190,18.0,27.0,83,-99.99,,,-99.99,,2013-06-01 16:42:00,
2013-06-01 11:52:00,71.0,65.0,-100.00,South,190,18.0,27.0,83,-99.99,,,-99.99,,2013-06-01 16:52:00,
2013-06-01 12:02:00,70.0,65.0,-100.00,SSW,195,19.0,26.0,84,-99.99,,,-99.99,,2013-06-01 17:02:00,
2013-06-01 12:12:00,70.0,65.0,-100.00,South,180,21.0,27.0,84,-99.99,,,-99.99,,2013-06-01 17:12:00,
2013-06-01 12:22:00,70.0,65.0,-100.00,South,180,21.0,27.0,84,-99.99,,,-99.99,,2013-06-01 17:22:00,
2013-06-01 12:32:00,71.0,66.0,-100.00,SSW,195,18.0,25.0,84,-99.99,,,-99.99,,2013-06-01 17:32:00,
2013-06-01 12:42:00,71.0,66.0,-100.00,South,190,21.0,29.0,84,-99.99,,,-99.99,,2013-06-01 17:42:00,
2013-06-01 12:52:00,71.0,66.0,-100.00,South,190,21.0,29.0,84,-99.99,,,-99.99,,2013-06-01 17:52:00,
2013-06-01 13:01:00,69.0,66.0,-100.00,South,190,22.0,27.0,88,-99.99,,,-99.99,,2013-06-01 18:01:00,
2013-06-01 13:12:00,68.0,66.0,-100.00,South,185,17.0,24.0,94,-99.99,,,-99.99,,2013-06-01 18:12:00,
2013-06-01 13:22:00,68.0,66.0,-100.00,South,185,17.0,24.0,94,-99.99,,,-99.99,,2013-06-01 18:22:00,
2013-06-01 13:32:00,70.0,67.0,-100.00,South,190,21.0,25.0,92,-99.99,,,-99.99,,2013-06-01 18:32:00,
2013-06-01 13:42:00,71.0,67.0,-100.00,South,185,19.0,25.0,89,-99.99,,,-99.99,,2013-06-01 18:42:00,
2013-06-01 13:52:00,71.0,67.0,-100.00,South,185,19.0,25.0,89,-99.99,,,-99.99,,2013-06-01 18:52:00,
2013-06-01 14:02:00,72.0,67.0,-100.00,SSW,195,23.0,28.0,84,-99.99,,,-99.99,,2013-06-01 19:02:00,
2013-06-01 14:11:00,72.0,66.0,-100.00,South,185,26.0,30.0,82,-99.99,,,-99.99,,2013-06-01 19:11:00,
2013-06-01 14:21:00,72.0,66.0,-100.00,South,185,26.0,30.0,82,-99.99,,,-99.99,,2013-06-01 19:21:00,
2013-06-01 14:32:00,73.0,66.0,-100.00,South,185,21.0,33.0,79,-99.99,,,-99.99,,2013-06-01 19:32:00,
2013-06-01 14:42:00,74.0,65.0,-100.00,SSW,195,28.0,36.0,75,-99.99,,,-99.99,,2013-06-01 19:42:00,
2013-06-01 14:52:00,74.0,65.0,-100.00,SSW,195,28.0,36.0,75,-99.99,,,-99.99,,2013-06-01 19:52:00,
2013-06-01 15:02:00,74.0,65.0,-100.00,South,190,26.0,33.0,73,-99.99,,,-99.99,,2013-06-01 20:02:00,
2013-06-01 15:12:00,73.0,65.0,-100.00,SSW,195,24.0,34.0,74,-99.99,,,-99.99,,2013-06-01 20:12:00,
2013-06-01 15:21:00,73.0,65.0,-100.00,SSW,195,24.0,34.0,74,-99.99,,,-99.99,,2013-06-01 20:21:00,
2013-06-01 15:32:00,74.0,65.0,-100.00,SSW,195,24.0,33.0,74,-99.99,,,-99.99,,2013-06-01 20:32:00,
2013-06-01 15:42:00,74.0,65.0,-100.00,SSW,200,25.0,34.0,73,-99.99,,,-99.99,,2013-06-01 20:42:00,
2013-06-01 15:52:00,74.0,65.0,-100.00,SSW,200,25.0,34.0,73,-99.99,,,-99.99,,2013-06-01 20:52:00,
2013-06-01 16:01:00,74.0,66.0,-100.00,South,185,24.0,31.0,75,-99.99,,,-99.99,,2013-06-01 21:01:00,
2013-06-01 16:11:00,75.0,66.0,-100.00,South,185,24.0,31.0,73,-99.99,,,-99.99,,2013-06-01 21:11:00,
2013-06-01 16:21:00,75.0,66.0,-100.00,South,185,24.0,31.0,73,-99.99,,,-99.99,,2013-06-01 21:21:00,
2013-06-01 16:33:00,74.0,65.0,-100.00,SSW,200,24.0,31.0,74,-99.99,,,-99.99,,2013-06-01 21:33:00,
2013-06-01 16:42:00,75.0,67.0,-100.00,SSW,195,21.0,30.0,75,-99.99,,,-99.99,,2013-06-01 21:42:00,
2013-06-01 16:53:00,75.0,67.0,-100.00,SSW,195,21.0,30.0,75,-99.99,,,-99.99,,2013-06-01 21:53:00,
2013-06-01 17:03:00,76.0,66.0,-100.00,SSW,195,23.0,31.0,73,-99.99,,,-99.99,,2013-06-01 22:03:00,
2013-06-01 17:12:00,75.0,67.0,-100.00,South,190,20.0,27.0,75,-99.99,,,-99.99,,2013-06-01 22:12:00,
2013-06-01 17:23:00,75.0,67.0,-100.00,South,190,20.0,27.0,75,-99.99,,,-99.99,,2013-06-01 22:23:00,
2013-06-01 17:33:00,73.0,66.0,-100.00,SSW,195,21.0,26.0,79,-99.99,,,-99.99,,2013-06-01 22:33:00,
2013-06-01 17:42:00,68.0,56.0,-100.00,WSW,255,32.0,47.0,67,-99.99,,,-99.99,,2013-06-01 22:42:00,
2013-06-01 17:53:00,68.0,56.0,-100.00,WSW,255,32.0,47.0,67,-99.99,,,-99.99,,2013-06-01 22:53:00,
2013-06-01 18:02:00,63.0,59.0,-100.00,SSW,205,17.0,32.0,88,-99.99,,,-99.99,,2013-06-01 23:02:00,
2013-06-01 18:11:00,64.0,60.0,-100.00,SSW,205,17.0,23.0,86,-99.99,,,-99.99,,2013-06-01 23:11:00,
2013-06-01 18:22:00,64.0,60.0,-100.00,SSW,205,17.0,23.0,86,-99.99,,,-99.99,,2013-06-01 23:22:00,
2013-06-01 18:32:00,66.0,62.0,-100.00,SSW,195,14.0,23.0,86,-99.99,,,-99.99,,2013-06-01 23:32:00,
2013-06-01 18:42:00,68.0,64.0,-100.00,SW,220,14.0,19.0,87,-99.99,,,-99.99,,2013-06-01 23:42:00,
2013-06-01 18:52:00,68.0,64.0,-100.00,SW,220,14.0,19.0,87,-99.99,,,-99.99,,2013-06-01 23:52:00,
2013-06-01 19:02:00,69.0,63.0,-100.00,WSW,245,16.0,24.0,81,-99.99,,,-99.99,,2013-06-02 00:02:00,
2013-06-01 19:11:00,70.0,64.0,-100.00,WSW,245,13.0,16.0,81,-99.99,,,-99.99,,2013-06-02 00:11:00,
2013-06-01 19:21:00,70.0,64.0,-100.00,WSW,245,13.0,16.0,81,-99.99,,,-99.99,,2013-06-02 00:21:00,
2013-06-01 19:32:00,70.0,63.0,-100.00,West,260,12.0,19.0,79,-99.99,,,-99.99,,2013-06-02 00:32:00,
2013-06-01 19:42:00,70.0,61.0,-100.00,West,270,13.0,20.0,75,-99.99,,,-99.99,,2013-06-02 00:42:00,
2013-06-01 19:52:00,70.0,61.0,-100.00,West,270,13.0,20.0,75,-99.99,,,-99.99,,2013-06-02 00:52:00,
2013-06-01 20:01:00,69.0,61.0,-100.00,West,275,13.0,18.0,75,-99.99,,,-99.99,,2013-06-02 01:01:00,
2013-06-01 20:11:00,69.0,61.0,-100.00,West,275,12.0,16.0,76,-99.99,,,-99.99,,2013-06-02 01:11:00,
2013-06-01 20:21:00,69.0,61.0,-100.00,West,275,12.0,16.0,76,-99.99,,,-99.99,,2013-06-02 01:21:00,
2013-06-01 20:32:00,69.0,59.0,-100.00,West,270,18.0,23.0,72,-99.99,,,-99.99,,2013-06-02 01:32:00,
2013-06-01 20:42:00,68.0,59.0,-100.00,West,270,16.0,21.0,74,-99.99,,,-99.99,,2013-06-02 01:42:00,
2013-06-01 20:52:00,68.0,59.0,-100.00,West,270,16.0,21.0,74,-99.99,,,-99.99,,2013-06-02 01:52:00,
2013-06-01 21:01:00,67.0,59.0,-100.00,West,270,16.0,20.0,75,-99.99,,,-99.99,,2013-06-02 02:01:00,
2013-06-01 21:12:00,67.0,59.0,-100.00,West,265,13.0,19.0,76,-99.99,,,-99.99,,2013-06-02 02:12:00,
2013-06-01 21:21:00,67.0,59.0,-100.00,West,265,13.0,19.0,76,-99.99,,,-99.99,,2013-06-02 02:21:00,
2013-06-01 21:32:00,66.0,58.0,-100.00,West,270,15.0,19.0,76,-99.99,,,-99.99,,2013-06-02 02:32:00,
2013-06-01 21:41:00,65.0,59.0,-100.00,West,275,12.0,16.0,79,-99.99,,,-99.99,,2013-06-02 02:41:00,
2013-06-01 21:52:00,65.0,59.0,-100.00,West,275,12.0,16.0,79,-99.99,,,-99.99,,2013-06-02 02:52:00,
2013-06-01 22:02:00,64.0,59.0,-100.00,West,270,10.0,11.0,82,-99.99,,,-99.99,,2013-06-02 03:02:00,
2013-06-01 22:11:00,64.0,59.0,-100.00,WSW,255,10.0,11.0,85,-99.99,,,-99.99,,2013-06-02 03:11:00,
2013-06-01 22:21:00,64.0,59.0,-100.00,WSW,255,10.0,11.0,85,-99.99,,,-99.99,,2013-06-02 03:21:00,
2013-06-01 22:33:00,63.0,59.0,-100.00,WSW,245,11.0,14.0,86,-99.99,,,-99.99,,2013-06-02 03:33:00,
2013-06-01 22:43:00,63.0,59.0,-100.00,WSW,255,11.0,14.0,85,-99.99,,,-99.99,,2013-06-02 03:43:00,
2013-06-01 22:53:00,63.0,59.0,-100.00,WSW,255,11.0,14.0,85,-99.99,,,-99.99,,2013-06-02 03:53:00,
2013-06-01 23:02:00,63.0,-99.9,-100.00,West,260,12.0,14.0,85,-99.99,,,-99.99,,2013-06-02 04:02:00,
2013-06-01 23:13:00,63.0,59.0,-100.00,WSW,255,11.0,15.0,86,-99.99,,,-99.99,,2013-06-02 04:13:00,
2013-06-01 23:23:00,63.0,59.0,-100.00,WSW,255,11.0,15.0,86,-99.99,,,-99.99,,2013-06-02 04:23:00,
2013-06-01 23:33:00,63.0,59.0,-100.00,WSW,250,12.0,14.0,87,-99.99,,,-99.99,,2013-06-02 04:33:00,
2013-06-01 23:42:00,62.0,59.0,-100.00,SW,235,9.0,11.0,89,-99.99,,,-99.99,,2013-06-02 04:42:00,
2013-06-01 23:53:00,62.0,59.0,-100.00,SW,235,9.0,11.0,89,-99.99,,,-99.99,,2013-06-02 04:53:00,